sensor_id;sensor_type;location;lat;lon;timestamp;P1;durP1;ratioP1;P2;durP2;ratioP2
48703;SDS011;34502;51.296;16.918;2022-11-10T00:00:05;57.70;;;38.55;;
48703;SDS011;34502;51.296;16.918;2022-11-10T00:02:32;59.53;;;39.28;;
48703;SDS011;34502;51.296;16.918;2022-11-10T00:04:58;57.78;;;37.40;;
48703;SDS011;34502;51.296;16.918;2022-11-10T00:07:25;62.75;;;38.72;;
48703;SDS011;34502;51.296;16.918;2022-11-10T00:09:52;58.78;;;37.85;;
48703;SDS011;34502;51.296;16.918;2022-11-10T00:12:19;65.75;;;41.40;;
48703;SDS011;34502;51.296;16.918;2022-11-10T00:14:45;62.67;;;39.83;;
48703;SDS011;34502;51.296;16.918;2022-11-10T00:17:30;66.30;;;38.90;;
48703;SDS011;34502;51.296;16.918;2022-11-10T00:19:57;62.60;;;40.20;;
48703;SDS011;34502;51.296;16.918;2022-11-10T00:22:24;71.30;;;44.50;;
48703;SDS011;34502;51.296;16.918;2022-11-10T00:24:50;59.15;;;38.25;;
48703;SDS011;34502;51.296;16.918;2022-11-10T00:27:16;62.10;;;40.15;;
48703;SDS011;34502;51.296;16.918;2022-11-10T00:29:42;59.33;;;39.25;;
48703;SDS011;34502;51.296;16.918;2022-11-10T00:32:08;57.50;;;38.42;;
48703;SDS011;34502;51.296;16.918;2022-11-10T00:34:34;59.08;;;37.70;;
48703;SDS011;34502;51.296;16.918;2022-11-10T00:37:01;57.03;;;37.60;;
48703;SDS011;34502;51.296;16.918;2022-11-10T00:39:28;64.45;;;39.67;;
48703;SDS011;34502;51.296;16.918;2022-11-10T00:41:54;60.28;;;37.33;;
48703;SDS011;34502;51.296;16.918;2022-11-10T00:44:20;64.35;;;39.28;;
48703;SDS011;34502;51.296;16.918;2022-11-10T00:46:46;60.80;;;39.42;;
48703;SDS011;34502;51.296;16.918;2022-11-10T00:49:12;62.70;;;39.33;;
48703;SDS011;34502;51.296;16.918;2022-11-10T00:51:38;62.97;;;39.17;;
48703;SDS011;34502;51.296;16.918;2022-11-10T00:54:05;57.03;;;36.55;;
48703;SDS011;34502;51.296;16.918;2022-11-10T00:56:31;66.15;;;40.30;;
48703;SDS011;34502;51.296;16.918;2022-11-10T00:58:57;62.47;;;39.90;;
48703;SDS011;34502;51.296;16.918;2022-11-10T01:01:23;61.00;;;40.35;;
48703;SDS011;34502;51.296;16.918;2022-11-10T01:03:50;62.47;;;38.10;;
48703;SDS011;34502;51.296;16.918;2022-11-10T01:06:18;65.00;;;41.17;;
48703;SDS011;34502;51.296;16.918;2022-11-10T01:08:44;55.70;;;37.72;;
48703;SDS011;34502;51.296;16.918;2022-11-10T01:11:14;58.83;;;38.80;;
48703;SDS011;34502;51.296;16.918;2022-11-10T01:13:41;64.40;;;40.85;;
48703;SDS011;34502;51.296;16.918;2022-11-10T01:16:18;62.80;;;40.70;;
48703;SDS011;34502;51.296;16.918;2022-11-10T01:18:52;62.65;;;39.20;;
48703;SDS011;34502;51.296;16.918;2022-11-10T01:21:21;63.28;;;40.00;;
48703;SDS011;34502;51.296;16.918;2022-11-10T01:23:47;62.50;;;38.60;;
48703;SDS011;34502;51.296;16.918;2022-11-10T01:26:13;60.80;;;38.22;;
48703;SDS011;34502;51.296;16.918;2022-11-10T01:28:40;62.72;;;39.58;;
48703;SDS011;34502;51.296;16.918;2022-11-10T01:31:08;61.05;;;39.72;;
48703;SDS011;34502;51.296;16.918;2022-11-10T01:33:42;66.63;;;41.40;;
48703;SDS011;34502;51.296;16.918;2022-11-10T01:36:09;71.03;;;43.80;;
48703;SDS011;34502;51.296;16.918;2022-11-10T01:38:38;61.35;;;39.85;;
48703;SDS011;34502;51.296;16.918;2022-11-10T01:41:05;65.53;;;41.47;;
48703;SDS011;34502;51.296;16.918;2022-11-10T01:43:32;64.57;;;40.55;;
48703;SDS011;34502;51.296;16.918;2022-11-10T01:45:59;63.72;;;40.30;;
48703;SDS011;34502;51.296;16.918;2022-11-10T01:53:43;61.58;;;41.30;;
48703;SDS011;34502;51.296;16.918;2022-11-10T01:56:11;58.22;;;40.25;;
48703;SDS011;34502;51.296;16.918;2022-11-10T01:58:41;62.72;;;40.03;;
48703;SDS011;34502;51.296;16.918;2022-11-10T02:01:10;56.90;;;39.50;;
48703;SDS011;34502;51.296;16.918;2022-11-10T02:06:15;62.58;;;38.78;;
48703;SDS011;34502;51.296;16.918;2022-11-10T02:08:42;57.58;;;38.45;;
48703;SDS011;34502;51.296;16.918;2022-11-10T02:11:09;63.60;;;40.60;;
48703;SDS011;34502;51.296;16.918;2022-11-10T02:13:35;58.42;;;37.95;;
48703;SDS011;34502;51.296;16.918;2022-11-10T02:16:01;63.15;;;38.75;;
48703;SDS011;34502;51.296;16.918;2022-11-10T02:18:27;61.30;;;38.97;;
48703;SDS011;34502;51.296;16.918;2022-11-10T02:20:53;62.03;;;39.10;;
48703;SDS011;34502;51.296;16.918;2022-11-10T02:25:55;60.17;;;38.28;;
48703;SDS011;34502;51.296;16.918;2022-11-10T02:28:22;56.55;;;37.47;;
48703;SDS011;34502;51.296;16.918;2022-11-10T02:30:48;55.15;;;35.78;;
48703;SDS011;34502;51.296;16.918;2022-11-10T02:33:15;54.90;;;37.15;;
48703;SDS011;34502;51.296;16.918;2022-11-10T02:35:44;56.63;;;37.67;;
48703;SDS011;34502;51.296;16.918;2022-11-10T02:38:11;55.33;;;36.03;;
48703;SDS011;34502;51.296;16.918;2022-11-10T02:40:37;58.03;;;38.38;;
48703;SDS011;34502;51.296;16.918;2022-11-10T02:43:04;57.42;;;36.50;;
48703;SDS011;34502;51.296;16.918;2022-11-10T02:45:33;58.70;;;37.55;;
48703;SDS011;34502;51.296;16.918;2022-11-10T02:47:59;57.42;;;36.22;;
48703;SDS011;34502;51.296;16.918;2022-11-10T02:50:25;51.13;;;34.28;;
48703;SDS011;34502;51.296;16.918;2022-11-10T02:52:51;54.03;;;35.83;;
48703;SDS011;34502;51.296;16.918;2022-11-10T02:55:17;51.20;;;35.03;;
48703;SDS011;34502;51.296;16.918;2022-11-10T02:57:43;54.78;;;33.97;;
48703;SDS011;34502;51.296;16.918;2022-11-10T03:00:09;52.08;;;35.42;;
48703;SDS011;34502;51.296;16.918;2022-11-10T03:02:36;57.40;;;35.80;;
48703;SDS011;34502;51.296;16.918;2022-11-10T03:05:02;58.90;;;36.80;;
48703;SDS011;34502;51.296;16.918;2022-11-10T03:07:28;50.75;;;35.60;;
48703;SDS011;34502;51.296;16.918;2022-11-10T03:09:54;53.45;;;35.45;;
48703;SDS011;34502;51.296;16.918;2022-11-10T03:12:20;58.20;;;36.42;;
48703;SDS011;34502;51.296;16.918;2022-11-10T03:14:47;57.17;;;36.20;;
48703;SDS011;34502;51.296;16.918;2022-11-10T03:17:13;57.53;;;35.97;;
48703;SDS011;34502;51.296;16.918;2022-11-10T03:19:39;56.20;;;35.78;;
48703;SDS011;34502;51.296;16.918;2022-11-10T03:22:05;53.10;;;35.75;;
48703;SDS011;34502;51.296;16.918;2022-11-10T03:24:31;54.97;;;34.92;;
48703;SDS011;34502;51.296;16.918;2022-11-10T03:26:57;55.75;;;36.30;;
48703;SDS011;34502;51.296;16.918;2022-11-10T03:29:23;49.55;;;35.33;;
48703;SDS011;34502;51.296;16.918;2022-11-10T03:31:49;53.55;;;33.40;;
48703;SDS011;34502;51.296;16.918;2022-11-10T03:34:15;55.42;;;36.83;;
48703;SDS011;34502;51.296;16.918;2022-11-10T03:36:42;51.97;;;32.65;;
48703;SDS011;34502;51.296;16.918;2022-11-10T03:39:08;48.80;;;32.53;;
48703;SDS011;34502;51.296;16.918;2022-11-10T03:41:34;50.22;;;33.60;;
48703;SDS011;34502;51.296;16.918;2022-11-10T03:44:00;51.97;;;33.45;;
48703;SDS011;34502;51.296;16.918;2022-11-10T03:46:26;53.13;;;33.58;;
48703;SDS011;34502;51.296;16.918;2022-11-10T03:48:53;56.45;;;34.28;;
48703;SDS011;34502;51.296;16.918;2022-11-10T03:51:19;51.10;;;32.67;;
48703;SDS011;34502;51.296;16.918;2022-11-10T03:53:45;51.22;;;33.95;;
48703;SDS011;34502;51.296;16.918;2022-11-10T03:56:11;47.47;;;32.10;;
48703;SDS011;34502;51.296;16.918;2022-11-10T03:58:37;49.90;;;32.78;;
48703;SDS011;34502;51.296;16.918;2022-11-10T04:01:04;52.42;;;34.42;;
48703;SDS011;34502;51.296;16.918;2022-11-10T04:03:30;52.40;;;34.67;;
48703;SDS011;34502;51.296;16.918;2022-11-10T04:05:56;50.33;;;33.45;;
48703;SDS011;34502;51.296;16.918;2022-11-10T04:08:40;49.75;;;32.78;;
48703;SDS011;34502;51.296;16.918;2022-11-10T04:11:25;47.28;;;31.83;;
48703;SDS011;34502;51.296;16.918;2022-11-10T04:14:11;47.92;;;31.83;;
48703;SDS011;34502;51.296;16.918;2022-11-10T04:16:56;48.15;;;31.83;;
48703;SDS011;34502;51.296;16.918;2022-11-10T04:19:22;55.15;;;34.17;;
48703;SDS011;34502;51.296;16.918;2022-11-10T04:21:49;49.65;;;33.30;;
48703;SDS011;34502;51.296;16.918;2022-11-10T04:24:15;54.35;;;35.33;;
48703;SDS011;34502;51.296;16.918;2022-11-10T04:26:41;48.35;;;31.98;;
48703;SDS011;34502;51.296;16.918;2022-11-10T04:29:09;45.65;;;31.85;;
48703;SDS011;34502;51.296;16.918;2022-11-10T04:31:37;49.22;;;31.38;;
48703;SDS011;34502;51.296;16.918;2022-11-10T04:34:04;44.95;;;31.02;;
48703;SDS011;34502;51.296;16.918;2022-11-10T04:36:33;41.30;;;29.50;;
48703;SDS011;34502;51.296;16.918;2022-11-10T04:39:01;46.10;;;31.15;;
48703;SDS011;34502;51.296;16.918;2022-11-10T04:41:28;47.08;;;29.38;;
48703;SDS011;34502;51.296;16.918;2022-11-10T04:43:55;45.88;;;31.70;;
48703;SDS011;34502;51.296;16.918;2022-11-10T04:48:55;44.03;;;29.65;;
48703;SDS011;34502;51.296;16.918;2022-11-10T04:51:26;46.08;;;29.35;;
48703;SDS011;34502;51.296;16.918;2022-11-10T04:53:56;42.15;;;29.50;;
48703;SDS011;34502;51.296;16.918;2022-11-10T04:56:23;43.92;;;29.90;;
48703;SDS011;34502;51.296;16.918;2022-11-10T04:58:50;43.78;;;28.13;;
48703;SDS011;34502;51.296;16.918;2022-11-10T05:01:17;41.78;;;29.48;;
48703;SDS011;34502;51.296;16.918;2022-11-10T05:03:45;40.15;;;28.30;;
48703;SDS011;34502;51.296;16.918;2022-11-10T05:06:12;36.33;;;26.15;;
48703;SDS011;34502;51.296;16.918;2022-11-10T05:08:38;46.13;;;29.60;;
48703;SDS011;34502;51.296;16.918;2022-11-10T05:11:05;38.90;;;27.30;;
48703;SDS011;34502;51.296;16.918;2022-11-10T05:13:32;40.28;;;27.98;;
48703;SDS011;34502;51.296;16.918;2022-11-10T05:15:58;42.33;;;27.63;;
48703;SDS011;34502;51.296;16.918;2022-11-10T05:18:24;47.15;;;30.55;;
48703;SDS011;34502;51.296;16.918;2022-11-10T05:20:50;45.28;;;29.00;;
48703;SDS011;34502;51.296;16.918;2022-11-10T05:23:17;40.40;;;27.88;;
48703;SDS011;34502;51.296;16.918;2022-11-10T05:26:10;39.78;;;27.05;;
48703;SDS011;34502;51.296;16.918;2022-11-10T05:28:40;43.33;;;29.10;;
48703;SDS011;34502;51.296;16.918;2022-11-10T05:31:07;39.33;;;28.52;;
48703;SDS011;34502;51.296;16.918;2022-11-10T05:33:34;44.15;;;29.88;;
48703;SDS011;34502;51.296;16.918;2022-11-10T05:36:00;39.33;;;27.77;;
48703;SDS011;34502;51.296;16.918;2022-11-10T05:38:27;40.90;;;28.80;;
48703;SDS011;34502;51.296;16.918;2022-11-10T05:40:53;38.55;;;26.05;;
48703;SDS011;34502;51.296;16.918;2022-11-10T05:43:20;40.35;;;27.67;;
48703;SDS011;34502;51.296;16.918;2022-11-10T05:45:46;39.30;;;27.85;;
48703;SDS011;34502;51.296;16.918;2022-11-10T05:48:12;38.88;;;27.02;;
48703;SDS011;34502;51.296;16.918;2022-11-10T05:50:38;42.53;;;26.98;;
48703;SDS011;34502;51.296;16.918;2022-11-10T05:53:05;36.22;;;25.85;;
48703;SDS011;34502;51.296;16.918;2022-11-10T05:55:31;42.83;;;27.42;;
48703;SDS011;34502;51.296;16.918;2022-11-10T05:57:57;41.22;;;26.45;;
48703;SDS011;34502;51.296;16.918;2022-11-10T06:00:25;41.45;;;27.10;;
48703;SDS011;34502;51.296;16.918;2022-11-10T06:03:02;39.10;;;25.80;;
48703;SDS011;34502;51.296;16.918;2022-11-10T06:05:29;34.88;;;24.20;;
48703;SDS011;34502;51.296;16.918;2022-11-10T06:07:58;36.90;;;25.50;;
48703;SDS011;34502;51.296;16.918;2022-11-10T06:10:24;37.45;;;25.90;;
48703;SDS011;34502;51.296;16.918;2022-11-10T06:12:51;35.50;;;24.27;;
48703;SDS011;34502;51.296;16.918;2022-11-10T06:15:17;36.20;;;25.23;;
48703;SDS011;34502;51.296;16.918;2022-11-10T06:17:43;33.22;;;22.75;;
48703;SDS011;34502;51.296;16.918;2022-11-10T06:20:10;34.80;;;23.52;;
48703;SDS011;34502;51.296;16.918;2022-11-10T06:22:37;35.45;;;24.52;;
48703;SDS011;34502;51.296;16.918;2022-11-10T06:25:04;33.53;;;22.33;;
48703;SDS011;34502;51.296;16.918;2022-11-10T06:27:30;34.65;;;24.13;;
48703;SDS011;34502;51.296;16.918;2022-11-10T06:29:56;36.40;;;24.40;;
48703;SDS011;34502;51.296;16.918;2022-11-10T06:32:22;32.20;;;22.73;;
48703;SDS011;34502;51.296;16.918;2022-11-10T06:34:48;33.63;;;24.63;;
48703;SDS011;34502;51.296;16.918;2022-11-10T06:37:14;34.70;;;22.58;;
48703;SDS011;34502;51.296;16.918;2022-11-10T06:39:41;36.47;;;24.05;;
48703;SDS011;34502;51.296;16.918;2022-11-10T06:42:07;36.70;;;23.23;;
48703;SDS011;34502;51.296;16.918;2022-11-10T06:44:33;34.95;;;23.77;;
48703;SDS011;34502;51.296;16.918;2022-11-10T06:46:59;35.15;;;24.52;;
48703;SDS011;34502;51.296;16.918;2022-11-10T06:49:25;34.05;;;23.05;;
48703;SDS011;34502;51.296;16.918;2022-11-10T06:51:51;35.10;;;24.90;;
48703;SDS011;34502;51.296;16.918;2022-11-10T06:54:17;36.42;;;24.65;;
48703;SDS011;34502;51.296;16.918;2022-11-10T06:56:43;35.70;;;23.85;;
48703;SDS011;34502;51.296;16.918;2022-11-10T06:59:09;35.78;;;22.50;;
48703;SDS011;34502;51.296;16.918;2022-11-10T07:01:35;34.58;;;22.45;;
48703;SDS011;34502;51.296;16.918;2022-11-10T07:04:01;31.80;;;22.33;;
48703;SDS011;34502;51.296;16.918;2022-11-10T07:06:28;30.92;;;20.65;;
48703;SDS011;34502;51.296;16.918;2022-11-10T07:08:54;33.20;;;21.60;;
48703;SDS011;34502;51.296;16.918;2022-11-10T07:11:21;34.67;;;19.95;;
48703;SDS011;34502;51.296;16.918;2022-11-10T07:13:47;25.45;;;17.33;;
48703;SDS011;34502;51.296;16.918;2022-11-10T07:16:13;23.10;;;15.88;;
48703;SDS011;34502;51.296;16.918;2022-11-10T07:18:40;23.48;;;16.02;;
48703;SDS011;34502;51.296;16.918;2022-11-10T07:21:06;24.17;;;16.27;;
48703;SDS011;34502;51.296;16.918;2022-11-10T07:23:32;25.00;;;15.85;;
48703;SDS011;34502;51.296;16.918;2022-11-10T07:25:59;29.90;;;14.30;;
48703;SDS011;34502;51.296;16.918;2022-11-10T07:28:25;22.73;;;14.07;;
48703;SDS011;34502;51.296;16.918;2022-11-10T07:30:51;17.98;;;12.98;;
48703;SDS011;34502;51.296;16.918;2022-11-10T07:33:18;19.58;;;13.20;;
48703;SDS011;34502;51.296;16.918;2022-11-10T07:35:51;20.80;;;14.60;;
48703;SDS011;34502;51.296;16.918;2022-11-10T07:38:21;25.35;;;13.40;;
48703;SDS011;34502;51.296;16.918;2022-11-10T07:40:51;21.02;;;12.10;;
48703;SDS011;34502;51.296;16.918;2022-11-10T07:43:18;22.10;;;12.02;;
48703;SDS011;34502;51.296;16.918;2022-11-10T07:45:45;18.67;;;12.63;;
48703;SDS011;34502;51.296;16.918;2022-11-10T07:48:11;22.80;;;13.32;;
48703;SDS011;34502;51.296;16.918;2022-11-10T07:50:37;22.75;;;12.48;;
48703;SDS011;34502;51.296;16.918;2022-11-10T07:53:05;16.70;;;11.85;;
48703;SDS011;34502;51.296;16.918;2022-11-10T07:55:31;18.63;;;11.27;;
48703;SDS011;34502;51.296;16.918;2022-11-10T07:57:58;17.10;;;11.15;;
48703;SDS011;34502;51.296;16.918;2022-11-10T08:00:24;17.58;;;10.98;;
48703;SDS011;34502;51.296;16.918;2022-11-10T08:02:53;18.50;;;11.05;;
48703;SDS011;34502;51.296;16.918;2022-11-10T08:05:19;20.80;;;11.95;;
48703;SDS011;34502;51.296;16.918;2022-11-10T08:07:45;17.77;;;12.10;;
48703;SDS011;34502;51.296;16.918;2022-11-10T08:10:11;19.23;;;10.32;;
48703;SDS011;34502;51.296;16.918;2022-11-10T08:12:37;21.98;;;9.45;;
48703;SDS011;34502;51.296;16.918;2022-11-10T08:15:03;12.60;;;9.23;;
48703;SDS011;34502;51.296;16.918;2022-11-10T08:17:29;15.98;;;10.15;;
48703;SDS011;34502;51.296;16.918;2022-11-10T08:19:56;12.27;;;8.98;;
48703;SDS011;34502;51.296;16.918;2022-11-10T08:22:22;16.23;;;8.20;;
48703;SDS011;34502;51.296;16.918;2022-11-10T08:24:48;13.95;;;8.25;;
48703;SDS011;34502;51.296;16.918;2022-11-10T08:27:14;19.52;;;8.05;;
48703;SDS011;34502;51.296;16.918;2022-11-10T08:29:40;13.70;;;7.70;;
48703;SDS011;34502;51.296;16.918;2022-11-10T08:32:06;13.43;;;8.45;;
48703;SDS011;34502;51.296;16.918;2022-11-10T08:34:32;15.30;;;8.05;;
48703;SDS011;34502;51.296;16.918;2022-11-10T08:36:58;12.43;;;7.70;;
48703;SDS011;34502;51.296;16.918;2022-11-10T08:39:24;13.18;;;7.20;;
48703;SDS011;34502;51.296;16.918;2022-11-10T08:41:50;15.18;;;8.70;;
48703;SDS011;34502;51.296;16.918;2022-11-10T08:44:16;13.43;;;7.72;;
48703;SDS011;34502;51.296;16.918;2022-11-10T08:46:42;8.48;;;6.03;;
48703;SDS011;34502;51.296;16.918;2022-11-10T08:49:09;10.23;;;6.32;;
48703;SDS011;34502;51.296;16.918;2022-11-10T08:51:35;10.90;;;5.55;;
48703;SDS011;34502;51.296;16.918;2022-11-10T08:54:01;9.25;;;5.53;;
48703;SDS011;34502;51.296;16.918;2022-11-10T08:56:27;12.77;;;6.13;;
48703;SDS011;34502;51.296;16.918;2022-11-10T08:58:53;11.35;;;5.40;;
48703;SDS011;34502;51.296;16.918;2022-11-10T09:01:19;8.45;;;4.80;;
48703;SDS011;34502;51.296;16.918;2022-11-10T09:03:45;11.25;;;5.20;;
48703;SDS011;34502;51.296;16.918;2022-11-10T09:06:12;9.63;;;5.53;;
48703;SDS011;34502;51.296;16.918;2022-11-10T09:08:38;14.15;;;6.03;;
48703;SDS011;34502;51.296;16.918;2022-11-10T09:11:04;8.73;;;5.20;;
48703;SDS011;34502;51.296;16.918;2022-11-10T09:13:30;9.57;;;5.18;;
48703;SDS011;34502;51.296;16.918;2022-11-10T09:16:02;10.90;;;5.05;;
48703;SDS011;34502;51.296;16.918;2022-11-10T09:18:29;8.85;;;4.40;;
48703;SDS011;34502;51.296;16.918;2022-11-10T09:20:55;7.78;;;4.53;;
48703;SDS011;34502;51.296;16.918;2022-11-10T09:23:22;5.63;;;3.92;;
48703;SDS011;34502;51.296;16.918;2022-11-10T09:25:52;8.38;;;4.22;;
48703;SDS011;34502;51.296;16.918;2022-11-10T09:28:19;6.57;;;4.28;;
48703;SDS011;34502;51.296;16.918;2022-11-10T09:30:47;11.77;;;4.53;;
48703;SDS011;34502;51.296;16.918;2022-11-10T09:33:15;9.68;;;3.88;;
48703;SDS011;34502;51.296;16.918;2022-11-10T09:35:41;7.90;;;4.03;;
48703;SDS011;34502;51.296;16.918;2022-11-10T09:38:08;6.85;;;3.53;;
48703;SDS011;34502;51.296;16.918;2022-11-10T09:43:09;11.25;;;4.05;;
48703;SDS011;34502;51.296;16.918;2022-11-10T09:45:41;5.45;;;2.97;;
48703;SDS011;34502;51.296;16.918;2022-11-10T09:48:14;6.72;;;3.28;;
48703;SDS011;34502;51.296;16.918;2022-11-10T09:50:49;5.38;;;2.75;;
48703;SDS011;34502;51.296;16.918;2022-11-10T09:53:24;5.85;;;2.97;;
48703;SDS011;34502;51.296;16.918;2022-11-10T09:55:57;5.55;;;2.72;;
48703;SDS011;34502;51.296;16.918;2022-11-10T09:58:29;7.15;;;3.28;;
48703;SDS011;34502;51.296;16.918;2022-11-10T10:01:10;8.93;;;2.75;;
48703;SDS011;34502;51.296;16.918;2022-11-10T10:03:46;9.50;;;2.97;;
48703;SDS011;34502;51.296;16.918;2022-11-10T10:06:16;9.65;;;3.25;;
48703;SDS011;34502;51.296;16.918;2022-11-10T10:08:52;8.68;;;3.30;;
48703;SDS011;34502;51.296;16.918;2022-11-10T10:11:40;6.65;;;3.08;;
48703;SDS011;34502;51.296;16.918;2022-11-10T10:20:10;8.25;;;4.10;;
48703;SDS011;34502;51.296;16.918;2022-11-10T10:25:29;6.00;;;2.55;;
48703;SDS011;34502;51.296;16.918;2022-11-10T10:27:58;8.75;;;3.10;;
48703;SDS011;34502;51.296;16.918;2022-11-10T10:30:31;9.50;;;3.15;;
48703;SDS011;34502;51.296;16.918;2022-11-10T10:32:59;12.20;;;2.90;;
48703;SDS011;34502;51.296;16.918;2022-11-10T10:35:38;14.65;;;3.38;;
48703;SDS011;34502;51.296;16.918;2022-11-10T10:38:05;14.07;;;4.80;;
48703;SDS011;34502;51.296;16.918;2022-11-10T10:40:41;11.55;;;2.20;;
48703;SDS011;34502;51.296;16.918;2022-11-10T10:43:08;10.20;;;3.40;;
48703;SDS011;34502;51.296;16.918;2022-11-10T10:45:34;12.73;;;4.32;;
48703;SDS011;34502;51.296;16.918;2022-11-10T10:48:15;7.35;;;2.72;;
48703;SDS011;34502;51.296;16.918;2022-11-10T10:50:54;4.60;;;2.30;;
48703;SDS011;34502;51.296;16.918;2022-11-10T10:53:21;6.68;;;2.38;;
48703;SDS011;34502;51.296;16.918;2022-11-10T10:55:53;6.35;;;2.20;;
48703;SDS011;34502;51.296;16.918;2022-11-10T10:58:59;8.25;;;2.65;;
48703;SDS011;34502;51.296;16.918;2022-11-10T11:01:31;7.35;;;2.38;;
48703;SDS011;34502;51.296;16.918;2022-11-10T11:03:58;7.82;;;2.72;;
48703;SDS011;34502;51.296;16.918;2022-11-10T11:06:30;7.68;;;2.95;;
48703;SDS011;34502;51.296;16.918;2022-11-10T11:11:38;8.15;;;2.38;;
48703;SDS011;34502;51.296;16.918;2022-11-10T11:16:48;5.43;;;1.73;;
48703;SDS011;34502;51.296;16.918;2022-11-10T11:19:20;5.82;;;2.08;;
48703;SDS011;34502;51.296;16.918;2022-11-10T11:22:15;9.80;;;2.30;;
48703;SDS011;34502;51.296;16.918;2022-11-10T11:30:41;5.50;;;2.38;;
48703;SDS011;34502;51.296;16.918;2022-11-10T11:33:26;7.90;;;2.53;;
48703;SDS011;34502;51.296;16.918;2022-11-10T11:44:01;5.88;;;1.70;;
48703;SDS011;34502;51.296;16.918;2022-11-10T11:49:36;5.18;;;2.03;;
48703;SDS011;34502;51.296;16.918;2022-11-10T11:55:23;4.70;;;1.70;;
48703;SDS011;34502;51.296;16.918;2022-11-10T12:00:51;4.68;;;2.08;;
48703;SDS011;34502;51.296;16.918;2022-11-10T12:03:28;5.72;;;1.90;;
48703;SDS011;34502;51.296;16.918;2022-11-10T12:06:26;5.72;;;1.75;;
48703;SDS011;34502;51.296;16.918;2022-11-10T12:09:18;3.97;;;1.38;;
48703;SDS011;34502;51.296;16.918;2022-11-10T12:20:15;11.53;;;2.27;;
48703;SDS011;34502;51.296;16.918;2022-11-10T12:25:45;9.43;;;1.80;;
48703;SDS011;34502;51.296;16.918;2022-11-10T12:28:21;4.40;;;1.30;;
48703;SDS011;34502;51.296;16.918;2022-11-10T12:30:55;7.18;;;2.00;;
48703;SDS011;34502;51.296;16.918;2022-11-10T12:36:11;4.53;;;1.38;;
48703;SDS011;34502;51.296;16.918;2022-11-10T12:38:43;8.48;;;2.25;;
48703;SDS011;34502;51.296;16.918;2022-11-10T12:41:23;8.93;;;2.60;;
48703;SDS011;34502;51.296;16.918;2022-11-10T12:46:32;6.07;;;2.03;;
48703;SDS011;34502;51.296;16.918;2022-11-10T12:54:17;8.07;;;1.60;;
48703;SDS011;34502;51.296;16.918;2022-11-10T12:56:46;4.45;;;1.50;;
48703;SDS011;34502;51.296;16.918;2022-11-10T13:02:24;3.50;;;1.40;;
48703;SDS011;34502;51.296;16.918;2022-11-10T13:04:44;5.80;;;1.80;;
48703;SDS011;34502;51.296;16.918;2022-11-10T13:07:10;5.03;;;1.67;;
48703;SDS011;34502;51.296;16.918;2022-11-10T13:09:38;3.33;;;1.40;;
48703;SDS011;34502;51.296;16.918;2022-11-10T13:14:45;5.35;;;1.70;;
48703;SDS011;34502;51.296;16.918;2022-11-10T13:19:54;6.85;;;2.28;;
48703;SDS011;34502;51.296;16.918;2022-11-10T13:22:28;7.10;;;1.92;;
48703;SDS011;34502;51.296;16.918;2022-11-10T13:27:59;8.00;;;2.72;;
48703;SDS011;34502;51.296;16.918;2022-11-10T13:30:39;7.05;;;2.45;;
48703;SDS011;34502;51.296;16.918;2022-11-10T13:33:28;8.05;;;3.28;;
48703;SDS011;34502;51.296;16.918;2022-11-10T13:35:59;4.30;;;1.92;;
48703;SDS011;34502;51.296;16.918;2022-11-10T13:41:11;6.88;;;2.08;;
48703;SDS011;34502;51.296;16.918;2022-11-10T13:43:53;7.63;;;2.50;;
48703;SDS011;34502;51.296;16.918;2022-11-10T13:46:22;9.15;;;2.30;;
48703;SDS011;34502;51.296;16.918;2022-11-10T13:59:56;7.55;;;2.30;;
48703;SDS011;34502;51.296;16.918;2022-11-10T14:05:07;10.13;;;3.03;;
48703;SDS011;34502;51.296;16.918;2022-11-10T14:08:03;3.63;;;1.30;;
48703;SDS011;34502;51.296;16.918;2022-11-10T14:10:39;9.27;;;2.20;;
48703;SDS011;34502;51.296;16.918;2022-11-10T14:13:17;11.88;;;2.42;;
48703;SDS011;34502;51.296;16.918;2022-11-10T14:15:58;11.23;;;2.28;;
48703;SDS011;34502;51.296;16.918;2022-11-10T14:18:25;8.15;;;2.17;;
48703;SDS011;34502;51.296;16.918;2022-11-10T14:20:55;10.90;;;2.65;;
48703;SDS011;34502;51.296;16.918;2022-11-10T14:26:23;8.43;;;2.30;;
48703;SDS011;34502;51.296;16.918;2022-11-10T14:28:53;5.03;;;2.00;;
48703;SDS011;34502;51.296;16.918;2022-11-10T14:31:20;5.25;;;1.88;;
48703;SDS011;34502;51.296;16.918;2022-11-10T14:33:54;6.20;;;1.77;;
48703;SDS011;34502;51.296;16.918;2022-11-10T14:36:21;7.55;;;2.05;;
48703;SDS011;34502;51.296;16.918;2022-11-10T14:38:48;7.03;;;2.05;;
48703;SDS011;34502;51.296;16.918;2022-11-10T14:41:17;8.23;;;1.92;;
48703;SDS011;34502;51.296;16.918;2022-11-10T14:43:58;6.25;;;1.73;;
48703;SDS011;34502;51.296;16.918;2022-11-10T14:46:29;6.10;;;1.55;;
48703;SDS011;34502;51.296;16.918;2022-11-10T14:48:56;11.15;;;2.40;;
48703;SDS011;34502;51.296;16.918;2022-11-10T14:51:23;8.38;;;1.92;;
48703;SDS011;34502;51.296;16.918;2022-11-10T14:53:51;5.65;;;1.65;;
48703;SDS011;34502;51.296;16.918;2022-11-10T14:56:38;7.75;;;1.75;;
48703;SDS011;34502;51.296;16.918;2022-11-10T14:59:06;7.18;;;1.70;;
48703;SDS011;34502;51.296;16.918;2022-11-10T15:01:37;12.88;;;2.50;;
48703;SDS011;34502;51.296;16.918;2022-11-10T15:04:05;5.55;;;1.80;;
48703;SDS011;34502;51.296;16.918;2022-11-10T15:06:32;7.20;;;2.08;;
48703;SDS011;34502;51.296;16.918;2022-11-10T15:08:59;8.27;;;2.28;;
48703;SDS011;34502;51.296;16.918;2022-11-10T15:11:51;8.85;;;2.40;;
48703;SDS011;34502;51.296;16.918;2022-11-10T15:17:04;8.52;;;2.35;;
48703;SDS011;34502;51.296;16.918;2022-11-10T15:19:36;6.60;;;2.10;;
48703;SDS011;34502;51.296;16.918;2022-11-10T15:22:26;8.93;;;2.77;;
48703;SDS011;34502;51.296;16.918;2022-11-10T15:24:59;9.25;;;2.33;;
48703;SDS011;34502;51.296;16.918;2022-11-10T15:27:32;8.73;;;2.97;;
48703;SDS011;34502;51.296;16.918;2022-11-10T15:29:59;6.70;;;2.92;;
48703;SDS011;34502;51.296;16.918;2022-11-10T15:32:32;11.38;;;2.78;;
48703;SDS011;34502;51.296;16.918;2022-11-10T15:35:07;11.93;;;3.00;;
48703;SDS011;34502;51.296;16.918;2022-11-10T15:45:33;8.63;;;3.05;;
48703;SDS011;34502;51.296;16.918;2022-11-10T15:47:59;7.22;;;2.80;;
48703;SDS011;34502;51.296;16.918;2022-11-10T15:50:26;9.85;;;2.80;;
48703;SDS011;34502;51.296;16.918;2022-11-10T15:52:52;8.77;;;2.63;;
48703;SDS011;34502;51.296;16.918;2022-11-10T15:55:19;13.27;;;2.40;;
48703;SDS011;34502;51.296;16.918;2022-11-10T15:57:46;8.57;;;2.33;;
48703;SDS011;34502;51.296;16.918;2022-11-10T16:00:12;9.98;;;2.60;;
48703;SDS011;34502;51.296;16.918;2022-11-10T16:02:39;11.15;;;3.00;;
48703;SDS011;34502;51.296;16.918;2022-11-10T16:05:10;10.95;;;2.92;;
48703;SDS011;34502;51.296;16.918;2022-11-10T16:07:37;9.07;;;3.28;;
48703;SDS011;34502;51.296;16.918;2022-11-10T16:10:03;9.88;;;3.20;;
48703;SDS011;34502;51.296;16.918;2022-11-10T16:12:30;9.23;;;3.10;;
48703;SDS011;34502;51.296;16.918;2022-11-10T16:14:56;11.48;;;3.30;;
48703;SDS011;34502;51.296;16.918;2022-11-10T16:17:24;11.50;;;3.13;;
48703;SDS011;34502;51.296;16.918;2022-11-10T16:19:50;11.45;;;2.95;;
48703;SDS011;34502;51.296;16.918;2022-11-10T16:22:16;10.00;;;3.10;;
48703;SDS011;34502;51.296;16.918;2022-11-10T16:24:42;10.20;;;3.65;;